Terminal Aerodrome Forecast
Issued by NWS Rapid City, SD

Home | Current Version | Previous Version | Text Only | Print | Product List | Glossary On
Versions: 1 2 3 4 5 6 7 8 9 10 11 12 13 14 15 16 17 18 19
000
FTUS43 KUNR 271120
TAFRAP
TAF
KRAP 271120Z 2712/2812 06006KT P6SM SCT080 BKN250
     FM271500 09009KT P6SM BKN025
     FM271700 07006KT P6SM OVC015
     FM280000 07009KT P6SM OVC025
     FM280600 04007KT 4SM -RA OVC015=

USA.gov is the U.S. government's official web portal to all federal, state and local government web resources and services.